sensor_id;sensor_type;location;lat;lon;timestamp;P1;durP1;ratioP1;P2;durP2;ratioP2
12844;SDS011;6489;48.508;9.206;2022-10-17T00:01:40;6.77;;;3.63;;
12844;SDS011;6489;48.508;9.206;2022-10-17T00:05:04;17.67;;;4.33;;
12844;SDS011;6489;48.508;9.206;2022-10-17T00:08:26;6.50;;;3.50;;
12844;SDS011;6489;48.508;9.206;2022-10-17T00:11:48;15.57;;;4.30;;
12844;SDS011;6489;48.508;9.206;2022-10-17T00:15:13;10.47;;;4.30;;
12844;SDS011;6489;48.508;9.206;2022-10-17T00:18:36;8.73;;;4.07;;
12844;SDS011;6489;48.508;9.206;2022-10-17T00:21:59;28.30;;;5.70;;
12844;SDS011;6489;48.508;9.206;2022-10-17T00:25:21;17.93;;;4.63;;
12844;SDS011;6489;48.508;9.206;2022-10-17T00:28:44;9.97;;;3.73;;
12844;SDS011;6489;48.508;9.206;2022-10-17T00:32:07;10.07;;;3.70;;
12844;SDS011;6489;48.508;9.206;2022-10-17T00:35:29;15.73;;;4.83;;
12844;SDS011;6489;48.508;9.206;2022-10-17T00:38:53;16.00;;;4.20;;
12844;SDS011;6489;48.508;9.206;2022-10-17T00:42:16;8.90;;;3.63;;
12844;SDS011;6489;48.508;9.206;2022-10-17T00:45:38;9.83;;;3.80;;
12844;SDS011;6489;48.508;9.206;2022-10-17T00:49:01;14.00;;;4.40;;
12844;SDS011;6489;48.508;9.206;2022-10-17T00:52:27;14.77;;;3.80;;
12844;SDS011;6489;48.508;9.206;2022-10-17T00:55:52;14.70;;;3.87;;
12844;SDS011;6489;48.508;9.206;2022-10-17T00:59:15;15.90;;;3.80;;
12844;SDS011;6489;48.508;9.206;2022-10-17T01:02:39;7.07;;;3.50;;
12844;SDS011;6489;48.508;9.206;2022-10-17T01:06:01;22.50;;;5.30;;
12844;SDS011;6489;48.508;9.206;2022-10-17T01:09:24;13.50;;;3.70;;
12844;SDS011;6489;48.508;9.206;2022-10-17T01:12:54;13.50;;;3.43;;
12844;SDS011;6489;48.508;9.206;2022-10-17T01:17:42;18.30;;;3.53;;
12844;SDS011;6489;48.508;9.206;2022-10-17T01:21:20;9.53;;;3.00;;
12844;SDS011;6489;48.508;9.206;2022-10-17T01:24:57;5.47;;;2.53;;
12844;SDS011;6489;48.508;9.206;2022-10-17T01:28:48;8.30;;;3.33;;
12844;SDS011;6489;48.508;9.206;2022-10-17T01:32:27;4.13;;;2.83;;
12844;SDS011;6489;48.508;9.206;2022-10-17T01:35:55;6.80;;;3.33;;
12844;SDS011;6489;48.508;9.206;2022-10-17T01:39:21;5.60;;;2.80;;
12844;SDS011;6489;48.508;9.206;2022-10-17T01:42:54;4.77;;;2.70;;
12844;SDS011;6489;48.508;9.206;2022-10-17T01:46:19;11.37;;;3.70;;
12844;SDS011;6489;48.508;9.206;2022-10-17T01:49:46;6.13;;;3.20;;
12844;SDS011;6489;48.508;9.206;2022-10-17T01:53:12;10.43;;;3.33;;
12844;SDS011;6489;48.508;9.206;2022-10-17T01:56:39;14.60;;;3.50;;
12844;SDS011;6489;48.508;9.206;2022-10-17T02:00:03;9.17;;;3.20;;
12844;SDS011;6489;48.508;9.206;2022-10-17T02:03:29;5.10;;;3.13;;
12844;SDS011;6489;48.508;9.206;2022-10-17T02:06:54;8.00;;;3.40;;
12844;SDS011;6489;48.508;9.206;2022-10-17T02:10:18;5.47;;;2.70;;
12844;SDS011;6489;48.508;9.206;2022-10-17T02:13:57;8.83;;;3.10;;
12844;SDS011;6489;48.508;9.206;2022-10-17T02:17:35;5.57;;;3.33;;
12844;SDS011;6489;48.508;9.206;2022-10-17T02:21:06;5.83;;;2.83;;
12844;SDS011;6489;48.508;9.206;2022-10-17T02:24:34;4.83;;;3.17;;
12844;SDS011;6489;48.508;9.206;2022-10-17T02:28:05;7.53;;;3.37;;
12844;SDS011;6489;48.508;9.206;2022-10-17T02:31:35;5.33;;;3.17;;
12844;SDS011;6489;48.508;9.206;2022-10-17T02:35:03;3.93;;;3.13;;
12844;SDS011;6489;48.508;9.206;2022-10-17T02:38:29;5.23;;;3.70;;
12844;SDS011;6489;48.508;9.206;2022-10-17T02:41:53;12.83;;;3.83;;
12844;SDS011;6489;48.508;9.206;2022-10-17T02:45:18;8.50;;;3.60;;
12844;SDS011;6489;48.508;9.206;2022-10-17T02:48:40;11.93;;;3.73;;
12844;SDS011;6489;48.508;9.206;2022-10-17T02:52:09;10.47;;;3.33;;
12844;SDS011;6489;48.508;9.206;2022-10-17T02:55:38;5.70;;;3.23;;
12844;SDS011;6489;48.508;9.206;2022-10-17T02:59:07;9.30;;;3.37;;
12844;SDS011;6489;48.508;9.206;2022-10-17T03:02:37;7.60;;;3.20;;
12844;SDS011;6489;48.508;9.206;2022-10-17T03:06:00;6.07;;;3.33;;
12844;SDS011;6489;48.508;9.206;2022-10-17T03:09:21;7.40;;;2.90;;
12844;SDS011;6489;48.508;9.206;2022-10-17T03:12:43;6.43;;;2.77;;
12844;SDS011;6489;48.508;9.206;2022-10-17T03:16:07;6.27;;;2.73;;
12844;SDS011;6489;48.508;9.206;2022-10-17T03:19:29;31.53;;;4.40;;
12844;SDS011;6489;48.508;9.206;2022-10-17T03:22:51;7.23;;;3.13;;
12844;SDS011;6489;48.508;9.206;2022-10-17T03:26:13;15.37;;;3.57;;
12844;SDS011;6489;48.508;9.206;2022-10-17T03:29:35;9.87;;;3.07;;
12844;SDS011;6489;48.508;9.206;2022-10-17T03:32:58;14.17;;;3.63;;
12844;SDS011;6489;48.508;9.206;2022-10-17T03:36:20;9.03;;;4.73;;
12844;SDS011;6489;48.508;9.206;2022-10-17T03:39:42;15.53;;;4.80;;
12844;SDS011;6489;48.508;9.206;2022-10-17T03:43:04;12.83;;;4.70;;
12844;SDS011;6489;48.508;9.206;2022-10-17T03:46:26;13.57;;;4.63;;
12844;SDS011;6489;48.508;9.206;2022-10-17T03:49:49;8.93;;;3.90;;
12844;SDS011;6489;48.508;9.206;2022-10-17T03:53:12;13.30;;;3.73;;
12844;SDS011;6489;48.508;9.206;2022-10-17T03:56:34;14.83;;;3.60;;
12844;SDS011;6489;48.508;9.206;2022-10-17T03:59:56;7.17;;;3.43;;
12844;SDS011;6489;48.508;9.206;2022-10-17T04:03:18;9.13;;;3.90;;
12844;SDS011;6489;48.508;9.206;2022-10-17T04:06:42;11.73;;;3.10;;
12844;SDS011;6489;48.508;9.206;2022-10-17T04:10:04;9.93;;;3.40;;
12844;SDS011;6489;48.508;9.206;2022-10-17T04:13:26;9.73;;;3.87;;
12844;SDS011;6489;48.508;9.206;2022-10-17T04:16:49;7.53;;;3.60;;
12844;SDS011;6489;48.508;9.206;2022-10-17T04:20:12;17.30;;;3.80;;
12844;SDS011;6489;48.508;9.206;2022-10-17T04:23:35;10.03;;;3.20;;
12844;SDS011;6489;48.508;9.206;2022-10-17T04:26:57;17.60;;;3.97;;
12844;SDS011;6489;48.508;9.206;2022-10-17T04:30:19;13.77;;;3.23;;
12844;SDS011;6489;48.508;9.206;2022-10-17T04:33:41;6.43;;;3.00;;
12844;SDS011;6489;48.508;9.206;2022-10-17T04:37:03;8.40;;;3.23;;
12844;SDS011;6489;48.508;9.206;2022-10-17T04:40:26;15.43;;;3.83;;
12844;SDS011;6489;48.508;9.206;2022-10-17T04:43:48;9.77;;;3.50;;
12844;SDS011;6489;48.508;9.206;2022-10-17T04:47:10;11.23;;;4.00;;
12844;SDS011;6489;48.508;9.206;2022-10-17T04:50:32;7.57;;;3.20;;
12844;SDS011;6489;48.508;9.206;2022-10-17T04:53:54;19.50;;;4.33;;
12844;SDS011;6489;48.508;9.206;2022-10-17T04:57:17;7.53;;;3.80;;
12844;SDS011;6489;48.508;9.206;2022-10-17T05:00:40;32.47;;;5.67;;
12844;SDS011;6489;48.508;9.206;2022-10-17T05:04:02;17.33;;;4.73;;
12844;SDS011;6489;48.508;9.206;2022-10-17T05:07:23;14.57;;;4.70;;
12844;SDS011;6489;48.508;9.206;2022-10-17T05:10:45;6.23;;;3.83;;
12844;SDS011;6489;48.508;9.206;2022-10-17T05:14:08;14.40;;;4.10;;
12844;SDS011;6489;48.508;9.206;2022-10-17T05:17:30;10.17;;;4.00;;
12844;SDS011;6489;48.508;9.206;2022-10-17T05:20:52;9.93;;;3.80;;
12844;SDS011;6489;48.508;9.206;2022-10-17T05:24:14;23.73;;;4.43;;
12844;SDS011;6489;48.508;9.206;2022-10-17T05:27:36;14.93;;;3.67;;
12844;SDS011;6489;48.508;9.206;2022-10-17T05:31:02;18.57;;;3.93;;
12844;SDS011;6489;48.508;9.206;2022-10-17T05:34:24;8.27;;;3.50;;
12844;SDS011;6489;48.508;9.206;2022-10-17T05:37:46;19.87;;;4.53;;
12844;SDS011;6489;48.508;9.206;2022-10-17T05:41:08;32.60;;;11.83;;
12844;SDS011;6489;48.508;9.206;2022-10-17T05:44:30;16.20;;;9.60;;
12844;SDS011;6489;48.508;9.206;2022-10-17T05:47:54;13.00;;;6.87;;
12844;SDS011;6489;48.508;9.206;2022-10-17T05:51:16;10.93;;;4.93;;
12844;SDS011;6489;48.508;9.206;2022-10-17T05:54:37;16.90;;;5.30;;
12844;SDS011;6489;48.508;9.206;2022-10-17T05:58:00;11.97;;;5.03;;
12844;SDS011;6489;48.508;9.206;2022-10-17T06:01:21;15.70;;;4.57;;
12844;SDS011;6489;48.508;9.206;2022-10-17T06:04:45;13.63;;;5.20;;
12844;SDS011;6489;48.508;9.206;2022-10-17T06:08:08;26.30;;;5.90;;
12844;SDS011;6489;48.508;9.206;2022-10-17T06:11:30;17.33;;;5.70;;
12844;SDS011;6489;48.508;9.206;2022-10-17T06:14:51;9.63;;;4.83;;
12844;SDS011;6489;48.508;9.206;2022-10-17T06:18:13;10.50;;;4.53;;
12844;SDS011;6489;48.508;9.206;2022-10-17T06:21:36;9.17;;;3.90;;
12844;SDS011;6489;48.508;9.206;2022-10-17T06:24:58;14.67;;;4.50;;
12844;SDS011;6489;48.508;9.206;2022-10-17T06:28:20;32.70;;;6.00;;
12844;SDS011;6489;48.508;9.206;2022-10-17T06:31:42;27.83;;;5.70;;
12844;SDS011;6489;48.508;9.206;2022-10-17T06:35:05;16.43;;;5.00;;
12844;SDS011;6489;48.508;9.206;2022-10-17T06:38:33;20.33;;;4.70;;
12844;SDS011;6489;48.508;9.206;2022-10-17T06:41:55;15.53;;;4.57;;
12844;SDS011;6489;48.508;9.206;2022-10-17T06:45:17;17.03;;;4.83;;
12844;SDS011;6489;48.508;9.206;2022-10-17T06:48:39;13.67;;;4.57;;
12844;SDS011;6489;48.508;9.206;2022-10-17T06:52:01;17.47;;;4.47;;
12844;SDS011;6489;48.508;9.206;2022-10-17T06:55:24;10.67;;;3.40;;
12844;SDS011;6489;48.508;9.206;2022-10-17T06:58:46;11.50;;;3.50;;
12844;SDS011;6489;48.508;9.206;2022-10-17T07:02:10;12.60;;;3.37;;
12844;SDS011;6489;48.508;9.206;2022-10-17T07:05:32;9.47;;;3.43;;
12844;SDS011;6489;48.508;9.206;2022-10-17T07:08:53;18.20;;;4.13;;
12844;SDS011;6489;48.508;9.206;2022-10-17T07:12:17;15.03;;;3.57;;
12844;SDS011;6489;48.508;9.206;2022-10-17T07:15:39;10.27;;;3.30;;
12844;SDS011;6489;48.508;9.206;2022-10-17T07:19:02;9.63;;;3.13;;
12844;SDS011;6489;48.508;9.206;2022-10-17T07:22:24;13.47;;;3.43;;
12844;SDS011;6489;48.508;9.206;2022-10-17T07:25:46;8.87;;;2.87;;
12844;SDS011;6489;48.508;9.206;2022-10-17T07:29:09;16.90;;;3.40;;
12844;SDS011;6489;48.508;9.206;2022-10-17T07:32:31;18.67;;;3.53;;
12844;SDS011;6489;48.508;9.206;2022-10-17T07:35:53;9.67;;;2.63;;
12844;SDS011;6489;48.508;9.206;2022-10-17T07:39:15;8.10;;;2.80;;
12844;SDS011;6489;48.508;9.206;2022-10-17T07:42:37;16.50;;;3.33;;
12844;SDS011;6489;48.508;9.206;2022-10-17T07:46:00;12.57;;;2.80;;
12844;SDS011;6489;48.508;9.206;2022-10-17T07:49:23;11.00;;;3.00;;
12844;SDS011;6489;48.508;9.206;2022-10-17T07:52:45;17.80;;;3.70;;
12844;SDS011;6489;48.508;9.206;2022-10-17T07:56:07;12.40;;;2.97;;
12844;SDS011;6489;48.508;9.206;2022-10-17T07:59:31;22.73;;;3.83;;
12844;SDS011;6489;48.508;9.206;2022-10-17T08:02:54;17.53;;;3.67;;
12844;SDS011;6489;48.508;9.206;2022-10-17T08:06:16;21.07;;;3.93;;
12844;SDS011;6489;48.508;9.206;2022-10-17T08:09:38;16.10;;;3.33;;
12844;SDS011;6489;48.508;9.206;2022-10-17T08:13:00;10.43;;;2.87;;
12844;SDS011;6489;48.508;9.206;2022-10-17T08:16:22;15.17;;;3.27;;
12844;SDS011;6489;48.508;9.206;2022-10-17T08:19:46;10.00;;;3.00;;
12844;SDS011;6489;48.508;9.206;2022-10-17T08:23:07;16.50;;;3.53;;
12844;SDS011;6489;48.508;9.206;2022-10-17T08:26:29;13.70;;;3.03;;
12844;SDS011;6489;48.508;9.206;2022-10-17T08:29:51;14.37;;;3.13;;
12844;SDS011;6489;48.508;9.206;2022-10-17T08:33:13;8.63;;;2.57;;
12844;SDS011;6489;48.508;9.206;2022-10-17T08:36:37;12.07;;;3.10;;
12844;SDS011;6489;48.508;9.206;2022-10-17T08:39:59;5.97;;;2.70;;
12844;SDS011;6489;48.508;9.206;2022-10-17T08:43:24;19.03;;;3.30;;
12844;SDS011;6489;48.508;9.206;2022-10-17T08:46:54;16.67;;;3.47;;
12844;SDS011;6489;48.508;9.206;2022-10-17T08:50:21;9.63;;;3.13;;
12844;SDS011;6489;48.508;9.206;2022-10-17T08:53:51;12.97;;;3.30;;
12844;SDS011;6489;48.508;9.206;2022-10-17T08:57:15;8.00;;;2.73;;
12844;SDS011;6489;48.508;9.206;2022-10-17T09:00:38;11.30;;;3.00;;
12844;SDS011;6489;48.508;9.206;2022-10-17T09:04:10;4.27;;;2.60;;
12844;SDS011;6489;48.508;9.206;2022-10-17T09:07:46;12.80;;;3.47;;
12844;SDS011;6489;48.508;9.206;2022-10-17T09:11:17;21.10;;;3.77;;
12844;SDS011;6489;48.508;9.206;2022-10-17T09:15:02;22.33;;;3.90;;
12844;SDS011;6489;48.508;9.206;2022-10-17T09:18:41;19.10;;;4.07;;
12844;SDS011;6489;48.508;9.206;2022-10-17T09:22:05;27.17;;;4.37;;
12844;SDS011;6489;48.508;9.206;2022-10-17T09:25:39;27.13;;;4.13;;
12844;SDS011;6489;48.508;9.206;2022-10-17T09:29:14;9.43;;;2.60;;
12844;SDS011;6489;48.508;9.206;2022-10-17T09:32:40;8.17;;;2.63;;
12844;SDS011;6489;48.508;9.206;2022-10-17T09:36:03;8.70;;;2.77;;
12844;SDS011;6489;48.508;9.206;2022-10-17T09:39:25;30.63;;;4.03;;
12844;SDS011;6489;48.508;9.206;2022-10-17T09:42:50;5.23;;;2.50;;
12844;SDS011;6489;48.508;9.206;2022-10-17T09:46:17;13.57;;;3.23;;
12844;SDS011;6489;48.508;9.206;2022-10-17T09:49:46;14.43;;;3.13;;
12844;SDS011;6489;48.508;9.206;2022-10-17T09:53:11;15.50;;;3.00;;
12844;SDS011;6489;48.508;9.206;2022-10-17T10:03:36;6.30;;;2.90;;
12844;SDS011;6489;48.508;9.206;2022-10-17T10:07:02;11.30;;;3.13;;
12844;SDS011;6489;48.508;9.206;2022-10-17T10:10:26;7.03;;;2.73;;
12844;SDS011;6489;48.508;9.206;2022-10-17T10:13:49;16.80;;;3.53;;
12844;SDS011;6489;48.508;9.206;2022-10-17T10:17:24;20.03;;;4.13;;
12844;SDS011;6489;48.508;9.206;2022-10-17T10:20:49;11.50;;;3.83;;
12844;SDS011;6489;48.508;9.206;2022-10-17T10:24:24;11.57;;;3.03;;
12844;SDS011;6489;48.508;9.206;2022-10-17T10:27:47;7.53;;;3.20;;
12844;SDS011;6489;48.508;9.206;2022-10-17T10:31:08;10.30;;;3.00;;
12844;SDS011;6489;48.508;9.206;2022-10-17T10:34:30;17.40;;;3.53;;
12844;SDS011;6489;48.508;9.206;2022-10-17T10:37:56;12.23;;;2.97;;
12844;SDS011;6489;48.508;9.206;2022-10-17T10:41:19;16.40;;;3.30;;
12844;SDS011;6489;48.508;9.206;2022-10-17T10:44:41;18.37;;;3.00;;
12844;SDS011;6489;48.508;9.206;2022-10-17T10:48:05;9.60;;;2.60;;
12844;SDS011;6489;48.508;9.206;2022-10-17T10:51:39;22.87;;;3.37;;
12844;SDS011;6489;48.508;9.206;2022-10-17T10:55:05;22.17;;;3.50;;
12844;SDS011;6489;48.508;9.206;2022-10-17T10:58:43;15.33;;;3.20;;
12844;SDS011;6489;48.508;9.206;2022-10-17T11:02:10;11.20;;;3.17;;
12844;SDS011;6489;48.508;9.206;2022-10-17T11:05:39;23.87;;;3.83;;
12844;SDS011;6489;48.508;9.206;2022-10-17T11:09:11;12.97;;;2.97;;
12844;SDS011;6489;48.508;9.206;2022-10-17T11:12:37;15.77;;;4.23;;
12844;SDS011;6489;48.508;9.206;2022-10-17T11:16:14;14.87;;;2.97;;
12844;SDS011;6489;48.508;9.206;2022-10-17T11:19:38;8.63;;;2.50;;
12844;SDS011;6489;48.508;9.206;2022-10-17T11:23:09;11.40;;;2.80;;
12844;SDS011;6489;48.508;9.206;2022-10-17T11:26:41;27.43;;;3.77;;
12844;SDS011;6489;48.508;9.206;2022-10-17T11:30:10;50.67;;;4.87;;
12844;SDS011;6489;48.508;9.206;2022-10-17T11:33:36;21.10;;;3.03;;
12844;SDS011;6489;48.508;9.206;2022-10-17T11:37:03;15.80;;;3.17;;
12844;SDS011;6489;48.508;9.206;2022-10-17T11:40:30;10.60;;;3.70;;
12844;SDS011;6489;48.508;9.206;2022-10-17T11:43:56;24.53;;;4.50;;
12844;SDS011;6489;48.508;9.206;2022-10-17T11:47:30;10.07;;;3.50;;
12844;SDS011;6489;48.508;9.206;2022-10-17T11:50:53;9.77;;;3.80;;
12844;SDS011;6489;48.508;9.206;2022-10-17T11:54:25;12.57;;;3.40;;
12844;SDS011;6489;48.508;9.206;2022-10-17T11:57:59;10.07;;;2.87;;
12844;SDS011;6489;48.508;9.206;2022-10-17T12:01:23;24.30;;;4.23;;
12844;SDS011;6489;48.508;9.206;2022-10-17T12:05:02;12.27;;;3.20;;
12844;SDS011;6489;48.508;9.206;2022-10-17T12:08:35;8.50;;;2.67;;
12844;SDS011;6489;48.508;9.206;2022-10-17T12:12:05;6.67;;;2.40;;
12844;SDS011;6489;48.508;9.206;2022-10-17T12:15:28;15.70;;;3.27;;
12844;SDS011;6489;48.508;9.206;2022-10-17T12:19:17;19.53;;;3.10;;
12844;SDS011;6489;48.508;9.206;2022-10-17T12:22:46;19.77;;;3.43;;
12844;SDS011;6489;48.508;9.206;2022-10-17T12:26:09;10.10;;;2.60;;
12844;SDS011;6489;48.508;9.206;2022-10-17T12:29:31;11.00;;;2.40;;
12844;SDS011;6489;48.508;9.206;2022-10-17T12:33:03;6.80;;;2.40;;
12844;SDS011;6489;48.508;9.206;2022-10-17T12:43:53;12.87;;;2.50;;
12844;SDS011;6489;48.508;9.206;2022-10-17T12:47:28;21.00;;;2.97;;
12844;SDS011;6489;48.508;9.206;2022-10-17T12:51:01;20.83;;;3.07;;
12844;SDS011;6489;48.508;9.206;2022-10-17T12:54:25;12.07;;;2.60;;
12844;SDS011;6489;48.508;9.206;2022-10-17T12:57:49;15.77;;;2.53;;
12844;SDS011;6489;48.508;9.206;2022-10-17T13:01:17;29.37;;;3.13;;
12844;SDS011;6489;48.508;9.206;2022-10-17T13:04:43;15.03;;;2.43;;
12844;SDS011;6489;48.508;9.206;2022-10-17T13:08:06;30.00;;;3.20;;
12844;SDS011;6489;48.508;9.206;2022-10-17T13:11:34;24.13;;;2.73;;
12844;SDS011;6489;48.508;9.206;2022-10-17T13:14:57;22.37;;;2.97;;
12844;SDS011;6489;48.508;9.206;2022-10-17T13:18:27;25.87;;;3.17;;
12844;SDS011;6489;48.508;9.206;2022-10-17T13:21:50;9.07;;;1.90;;
12844;SDS011;6489;48.508;9.206;2022-10-17T13:25:15;42.10;;;4.10;;
12844;SDS011;6489;48.508;9.206;2022-10-17T13:28:37;18.93;;;2.43;;
12844;SDS011;6489;48.508;9.206;2022-10-17T13:32:00;14.30;;;2.20;;
12844;SDS011;6489;48.508;9.206;2022-10-17T13:35:26;8.80;;;2.00;;
12844;SDS011;6489;48.508;9.206;2022-10-17T13:38:49;14.40;;;2.30;;
12844;SDS011;6489;48.508;9.206;2022-10-17T13:42:16;8.93;;;2.07;;
12844;SDS011;6489;48.508;9.206;2022-10-17T13:45:44;9.67;;;1.87;;
12844;SDS011;6489;48.508;9.206;2022-10-17T13:49:14;12.20;;;2.13;;
12844;SDS011;6489;48.508;9.206;2022-10-17T13:52:38;14.33;;;2.30;;
12844;SDS011;6489;48.508;9.206;2022-10-17T13:56:00;14.87;;;2.40;;
12844;SDS011;6489;48.508;9.206;2022-10-17T13:59:24;10.83;;;2.20;;
12844;SDS011;6489;48.508;9.206;2022-10-17T14:02:48;14.37;;;2.30;;
12844;SDS011;6489;48.508;9.206;2022-10-17T14:06:11;16.57;;;2.37;;
12844;SDS011;6489;48.508;9.206;2022-10-17T14:09:37;14.17;;;2.50;;
12844;SDS011;6489;48.508;9.206;2022-10-17T14:12:59;19.43;;;2.47;;
12844;SDS011;6489;48.508;9.206;2022-10-17T14:16:23;20.80;;;2.90;;
12844;SDS011;6489;48.508;9.206;2022-10-17T14:19:49;13.40;;;2.43;;
12844;SDS011;6489;48.508;9.206;2022-10-17T14:23:26;30.07;;;3.10;;
12844;SDS011;6489;48.508;9.206;2022-10-17T14:26:52;27.13;;;2.93;;
12844;SDS011;6489;48.508;9.206;2022-10-17T14:30:29;25.07;;;2.87;;
12844;SDS011;6489;48.508;9.206;2022-10-17T14:33:53;32.37;;;3.57;;
12844;SDS011;6489;48.508;9.206;2022-10-17T14:37:19;31.53;;;3.70;;
12844;SDS011;6489;48.508;9.206;2022-10-17T14:40:51;35.10;;;3.90;;
12844;SDS011;6489;48.508;9.206;2022-10-17T14:44:18;19.93;;;2.90;;
12844;SDS011;6489;48.508;9.206;2022-10-17T14:47:42;16.30;;;2.40;;
12844;SDS011;6489;48.508;9.206;2022-10-17T14:51:09;36.60;;;3.70;;
12844;SDS011;6489;48.508;9.206;2022-10-17T14:54:33;21.17;;;2.70;;
12844;SDS011;6489;48.508;9.206;2022-10-17T14:57:56;34.03;;;3.60;;
12844;SDS011;6489;48.508;9.206;2022-10-17T15:01:19;18.90;;;2.90;;
12844;SDS011;6489;48.508;9.206;2022-10-17T15:04:41;17.33;;;2.70;;
12844;SDS011;6489;48.508;9.206;2022-10-17T15:08:04;13.90;;;2.43;;
12844;SDS011;6489;48.508;9.206;2022-10-17T15:11:29;47.60;;;4.40;;
12844;SDS011;6489;48.508;9.206;2022-10-17T15:14:51;30.63;;;3.67;;
12844;SDS011;6489;48.508;9.206;2022-10-17T15:18:15;23.73;;;3.93;;
12844;SDS011;6489;48.508;9.206;2022-10-17T15:21:37;25.70;;;3.43;;
12844;SDS011;6489;48.508;9.206;2022-10-17T15:24:58;30.17;;;4.17;;
12844;SDS011;6489;48.508;9.206;2022-10-17T15:28:20;34.40;;;3.83;;
12844;SDS011;6489;48.508;9.206;2022-10-17T15:31:42;11.50;;;2.50;;
12844;SDS011;6489;48.508;9.206;2022-10-17T15:35:06;17.47;;;2.80;;
12844;SDS011;6489;48.508;9.206;2022-10-17T15:38:28;26.10;;;3.17;;
12844;SDS011;6489;48.508;9.206;2022-10-17T15:41:50;39.70;;;4.03;;
12844;SDS011;6489;48.508;9.206;2022-10-17T15:45:12;8.37;;;2.67;;
12844;SDS011;6489;48.508;9.206;2022-10-17T15:48:36;19.57;;;3.40;;
12844;SDS011;6489;48.508;9.206;2022-10-17T15:52:00;36.13;;;3.90;;
12844;SDS011;6489;48.508;9.206;2022-10-17T15:55:21;15.37;;;3.03;;
12844;SDS011;6489;48.508;9.206;2022-10-17T15:58:43;18.43;;;3.17;;
12844;SDS011;6489;48.508;9.206;2022-10-17T16:02:08;22.57;;;3.60;;
12844;SDS011;6489;48.508;9.206;2022-10-17T16:05:32;31.27;;;4.23;;
12844;SDS011;6489;48.508;9.206;2022-10-17T16:08:55;27.60;;;3.57;;
12844;SDS011;6489;48.508;9.206;2022-10-17T16:12:18;18.43;;;3.10;;
12844;SDS011;6489;48.508;9.206;2022-10-17T16:15:46;18.47;;;3.43;;
12844;SDS011;6489;48.508;9.206;2022-10-17T16:19:08;13.03;;;3.00;;
12844;SDS011;6489;48.508;9.206;2022-10-17T16:22:31;8.03;;;2.87;;
12844;SDS011;6489;48.508;9.206;2022-10-17T16:25:57;18.00;;;3.33;;
12844;SDS011;6489;48.508;9.206;2022-10-17T16:29:18;20.70;;;3.70;;
12844;SDS011;6489;48.508;9.206;2022-10-17T16:32:41;17.73;;;3.70;;
12844;SDS011;6489;48.508;9.206;2022-10-17T16:36:03;7.83;;;3.13;;
12844;SDS011;6489;48.508;9.206;2022-10-17T16:39:26;21.53;;;3.87;;
12844;SDS011;6489;48.508;9.206;2022-10-17T16:42:49;22.83;;;3.90;;
12844;SDS011;6489;48.508;9.206;2022-10-17T16:46:11;15.87;;;3.13;;
12844;SDS011;6489;48.508;9.206;2022-10-17T16:49:33;12.33;;;2.80;;
12844;SDS011;6489;48.508;9.206;2022-10-17T16:52:55;25.60;;;4.30;;
12844;SDS011;6489;48.508;9.206;2022-10-17T16:56:18;12.90;;;2.90;;
12844;SDS011;6489;48.508;9.206;2022-10-17T16:59:42;25.00;;;4.33;;
12844;SDS011;6489;48.508;9.206;2022-10-17T17:03:04;13.70;;;3.83;;
12844;SDS011;6489;48.508;9.206;2022-10-17T17:06:27;38.07;;;5.10;;
12844;SDS011;6489;48.508;9.206;2022-10-17T17:09:49;18.30;;;8.93;;
12844;SDS011;6489;48.508;9.206;2022-10-17T17:13:12;20.77;;;4.80;;
12844;SDS011;6489;48.508;9.206;2022-10-17T17:16:35;16.63;;;3.97;;
12844;SDS011;6489;48.508;9.206;2022-10-17T17:19:57;31.73;;;4.47;;
12844;SDS011;6489;48.508;9.206;2022-10-17T17:23:19;12.10;;;2.93;;
12844;SDS011;6489;48.508;9.206;2022-10-17T17:26:41;29.07;;;4.10;;
12844;SDS011;6489;48.508;9.206;2022-10-17T17:30:04;40.23;;;5.47;;
12844;SDS011;6489;48.508;9.206;2022-10-17T17:33:28;23.77;;;7.27;;
12844;SDS011;6489;48.508;9.206;2022-10-17T17:36:50;15.87;;;5.03;;
12844;SDS011;6489;48.508;9.206;2022-10-17T17:40:12;32.60;;;6.43;;
12844;SDS011;6489;48.508;9.206;2022-10-17T17:43:34;15.37;;;5.70;;
12844;SDS011;6489;48.508;9.206;2022-10-17T17:46:56;32.10;;;5.53;;
12844;SDS011;6489;48.508;9.206;2022-10-17T17:50:19;13.13;;;3.77;;
12844;SDS011;6489;48.508;9.206;2022-10-17T17:53:41;11.10;;;3.60;;
12844;SDS011;6489;48.508;9.206;2022-10-17T17:57:04;21.03;;;4.60;;
12844;SDS011;6489;48.508;9.206;2022-10-17T18:00:25;24.00;;;4.57;;
12844;SDS011;6489;48.508;9.206;2022-10-17T18:03:49;16.57;;;4.33;;
12844;SDS011;6489;48.508;9.206;2022-10-17T18:07:13;21.03;;;4.27;;
12844;SDS011;6489;48.508;9.206;2022-10-17T18:10:35;9.67;;;4.00;;
12844;SDS011;6489;48.508;9.206;2022-10-17T18:13:59;17.73;;;4.17;;
12844;SDS011;6489;48.508;9.206;2022-10-17T18:17:25;12.83;;;3.60;;
12844;SDS011;6489;48.508;9.206;2022-10-17T18:20:47;18.07;;;4.27;;
12844;SDS011;6489;48.508;9.206;2022-10-17T18:24:10;21.30;;;5.10;;
12844;SDS011;6489;48.508;9.206;2022-10-17T18:27:32;17.93;;;6.30;;
12844;SDS011;6489;48.508;9.206;2022-10-17T18:30:54;10.80;;;5.27;;
12844;SDS011;6489;48.508;9.206;2022-10-17T18:34:17;23.47;;;5.20;;
12844;SDS011;6489;48.508;9.206;2022-10-17T18:37:38;19.07;;;5.33;;
12844;SDS011;6489;48.508;9.206;2022-10-17T18:41:02;20.07;;;6.00;;
12844;SDS011;6489;48.508;9.206;2022-10-17T18:44:25;8.77;;;5.07;;
12844;SDS011;6489;48.508;9.206;2022-10-17T18:47:47;14.03;;;5.33;;
12844;SDS011;6489;48.508;9.206;2022-10-17T18:51:11;20.00;;;4.53;;
12844;SDS011;6489;48.508;9.206;2022-10-17T18:54:34;19.23;;;4.83;;
12844;SDS011;6489;48.508;9.206;2022-10-17T18:57:57;12.73;;;4.93;;
12844;SDS011;6489;48.508;9.206;2022-10-17T19:01:20;15.43;;;4.90;;
12844;SDS011;6489;48.508;9.206;2022-10-17T19:04:43;19.73;;;4.70;;
12844;SDS011;6489;48.508;9.206;2022-10-17T19:08:05;13.50;;;3.57;;
12844;SDS011;6489;48.508;9.206;2022-10-17T19:11:28;8.73;;;4.13;;
12844;SDS011;6489;48.508;9.206;2022-10-17T19:14:52;24.70;;;4.20;;
12844;SDS011;6489;48.508;9.206;2022-10-17T19:18:15;15.70;;;3.83;;
12844;SDS011;6489;48.508;9.206;2022-10-17T19:21:37;11.03;;;4.23;;
12844;SDS011;6489;48.508;9.206;2022-10-17T19:24:59;7.47;;;3.50;;
12844;SDS011;6489;48.508;9.206;2022-10-17T19:28:21;9.73;;;3.87;;
12844;SDS011;6489;48.508;9.206;2022-10-17T19:31:44;13.97;;;3.70;;
12844;SDS011;6489;48.508;9.206;2022-10-17T19:35:07;12.97;;;3.57;;
12844;SDS011;6489;48.508;9.206;2022-10-17T19:38:30;6.07;;;3.10;;
12844;SDS011;6489;48.508;9.206;2022-10-17T19:41:53;18.10;;;3.93;;
12844;SDS011;6489;48.508;9.206;2022-10-17T19:45:15;15.27;;;3.30;;
12844;SDS011;6489;48.508;9.206;2022-10-17T19:48:38;9.00;;;3.00;;
12844;SDS011;6489;48.508;9.206;2022-10-17T19:52:00;6.93;;;3.00;;
12844;SDS011;6489;48.508;9.206;2022-10-17T19:55:22;14.40;;;3.20;;
12844;SDS011;6489;48.508;9.206;2022-10-17T19:58:45;11.43;;;3.33;;
12844;SDS011;6489;48.508;9.206;2022-10-17T20:02:08;10.80;;;3.20;;
12844;SDS011;6489;48.508;9.206;2022-10-17T20:05:35;12.23;;;3.03;;
12844;SDS011;6489;48.508;9.206;2022-10-17T20:08:58;16.77;;;4.53;;
12844;SDS011;6489;48.508;9.206;2022-10-17T20:12:20;14.67;;;4.90;;
12844;SDS011;6489;48.508;9.206;2022-10-17T20:15:42;9.70;;;3.93;;
12844;SDS011;6489;48.508;9.206;2022-10-17T20:19:13;12.97;;;3.77;;
12844;SDS011;6489;48.508;9.206;2022-10-17T20:22:36;10.87;;;3.63;;
12844;SDS011;6489;48.508;9.206;2022-10-17T20:25:58;12.00;;;3.50;;
12844;SDS011;6489;48.508;9.206;2022-10-17T20:29:21;15.80;;;3.83;;
12844;SDS011;6489;48.508;9.206;2022-10-17T20:32:45;19.97;;;3.97;;
12844;SDS011;6489;48.508;9.206;2022-10-17T20:36:08;10.97;;;3.10;;
12844;SDS011;6489;48.508;9.206;2022-10-17T20:39:32;22.90;;;4.10;;
12844;SDS011;6489;48.508;9.206;2022-10-17T20:42:54;10.23;;;3.90;;
12844;SDS011;6489;48.508;9.206;2022-10-17T20:46:16;12.80;;;3.83;;
12844;SDS011;6489;48.508;9.206;2022-10-17T20:49:39;11.43;;;3.33;;
12844;SDS011;6489;48.508;9.206;2022-10-17T20:53:01;13.80;;;3.70;;